createdAt,value
2017-01-07T00:00:57.269Z,0
2017-01-07T00:02:10.867Z,0
2017-01-07T00:03:24.376Z,0
2017-01-07T00:04:37.782Z,0
2017-01-07T00:05:51.260Z,0
2017-01-07T00:07:04.699Z,0
2017-01-07T00:08:18.413Z,0
2017-01-07T00:09:33.285Z,0
2017-01-07T00:10:46.713Z,0
2017-01-07T00:12:00.594Z,0
2017-01-07T00:13:14.241Z,0
2017-01-07T00:14:28.042Z,0
2017-01-07T00:15:41.543Z,0
2017-01-07T00:17:01.263Z,0
2017-01-07T00:18:14.672Z,0
2017-01-07T00:19:28.203Z,0
2017-01-07T00:20:42.191Z,0
2017-01-07T00:21:55.824Z,0
2017-01-07T00:23:11.424Z,0
2017-01-07T00:24:24.995Z,0
2017-01-07T00:25:38.467Z,0
2017-01-07T00:26:52.360Z,0
2017-01-07T00:28:05.794Z,0
2017-01-07T00:29:19.358Z,0
2017-01-07T00:30:32.773Z,0
2017-01-07T00:31:46.218Z,0
2017-01-07T00:32:59.675Z,0
2017-01-07T00:34:13.119Z,0
2017-01-07T00:35:26.716Z,0
2017-01-07T00:36:40.121Z,0
2017-01-07T00:37:53.584Z,0
2017-01-07T00:39:07.035Z,0
2017-01-07T00:40:20.553Z,0
2017-01-07T00:41:34.197Z,0
2017-01-07T00:42:47.643Z,0
2017-01-07T00:44:01.276Z,0
2017-01-07T00:45:14.678Z,0
2017-01-07T00:46:28.195Z,0
2017-01-07T00:47:41.664Z,0
2017-01-07T00:48:55.096Z,0
2017-01-07T00:50:08.668Z,0
2017-01-07T00:51:22.269Z,0
2017-01-07T00:52:35.712Z,0
2017-01-07T00:53:49.127Z,0
2017-01-07T00:55:02.541Z,0
2017-01-07T00:56:16.055Z,0
2017-01-07T00:57:29.497Z,0
2017-01-07T00:58:42.982Z,0
2017-01-07T00:59:56.407Z,0
2017-01-07T01:01:09.855Z,0
2017-01-07T01:02:23.851Z,0
2017-01-07T01:03:37.290Z,0
2017-01-07T01:04:50.692Z,0
2017-01-07T01:06:04.203Z,0
2017-01-07T01:07:17.791Z,0
2017-01-07T01:08:31.179Z,0
2017-01-07T01:09:44.628Z,0
2017-01-07T01:10:58.048Z,0
2017-01-07T01:12:11.866Z,0
2017-01-07T01:13:25.300Z,0
2017-01-07T01:14:38.718Z,0
2017-01-07T01:15:52.146Z,0
2017-01-07T01:17:05.607Z,0
2017-01-07T01:18:19.722Z,0
2017-01-07T01:19:33.553Z,0
2017-01-07T01:20:47.608Z,0
2017-01-07T01:22:01.007Z,0
2017-01-07T01:23:14.576Z,0
2017-01-07T01:24:27.992Z,0
2017-01-07T01:25:41.525Z,0
2017-01-07T01:26:54.977Z,0
2017-01-07T01:28:08.476Z,0
2017-01-07T01:29:21.893Z,0
2017-01-07T01:30:35.295Z,0
2017-01-07T01:31:48.887Z,0
2017-01-07T01:33:02.367Z,0
2017-01-07T01:34:16.258Z,0
2017-01-07T01:35:29.710Z,0
2017-01-07T01:36:43.177Z,0
2017-01-07T01:37:56.744Z,0
2017-01-07T01:39:12.479Z,0
2017-01-07T01:40:26.067Z,0
2017-01-07T01:41:39.510Z,0
2017-01-07T01:42:52.975Z,0
2017-01-07T01:44:06.884Z,0
2017-01-07T01:45:20.278Z,0
2017-01-07T01:46:33.816Z,0
2017-01-07T01:47:47.255Z,0
2017-01-07T01:49:00.701Z,0
2017-01-07T01:50:14.182Z,0
2017-01-07T01:51:27.591Z,0
2017-01-07T01:52:41.059Z,0
2017-01-07T01:53:54.593Z,0
2017-01-07T01:55:08.084Z,0
2017-01-07T01:56:21.532Z,0
2017-01-07T01:57:34.972Z,0
2017-01-07T01:58:48.403Z,0
2017-01-07T02:00:02.008Z,0
2017-01-07T02:01:15.481Z,0
2017-01-07T02:02:28.965Z,0
2017-01-07T02:03:42.350Z,0
2017-01-07T02:04:55.802Z,0
2017-01-07T02:06:09.764Z,0
2017-01-07T02:07:23.327Z,0
2017-01-07T02:08:36.829Z,0
2017-01-07T02:09:50.309Z,0
2017-01-07T02:11:03.922Z,0
2017-01-07T02:12:17.376Z,0
2017-01-07T02:13:30.802Z,0
2017-01-07T02:14:44.574Z,0
2017-01-07T02:15:58.195Z,0
2017-01-07T02:17:11.608Z,0
2017-01-07T02:18:25.061Z,0
2017-01-07T02:19:38.479Z,0
2017-01-07T02:20:51.892Z,0
2017-01-07T02:22:05.946Z,0
2017-01-07T02:23:19.463Z,0
2017-01-07T02:24:32.909Z,0
2017-01-07T02:25:46.346Z,0
2017-01-07T02:26:59.857Z,0
2017-01-07T02:28:13.400Z,0
2017-01-07T02:29:27.015Z,0
2017-01-07T02:30:40.430Z,0
2017-01-07T02:31:53.931Z,0
2017-01-07T02:33:07.360Z,0
2017-01-07T02:34:21.810Z,0
2017-01-07T02:35:35.233Z,0
2017-01-07T02:36:48.737Z,0
2017-01-07T02:38:02.231Z,0
2017-01-07T02:39:15.625Z,0
2017-01-07T02:40:29.052Z,0
2017-01-07T02:41:42.641Z,0
2017-01-07T02:42:56.272Z,0
2017-01-07T02:44:09.767Z,0
2017-01-07T02:45:23.184Z,0
2017-01-07T02:46:36.616Z,0
2017-01-07T02:47:50.599Z,0
2017-01-07T02:49:03.992Z,0
2017-01-07T02:50:17.555Z,0
2017-01-07T02:51:30.950Z,0
2017-01-07T02:52:44.431Z,0
2017-01-07T02:53:59.082Z,0
2017-01-07T02:55:14.699Z,0
2017-01-07T02:56:28.223Z,0
2017-01-07T02:57:41.638Z,0
2017-01-07T02:58:55.116Z,0
2017-01-07T03:00:08.947Z,0
2017-01-07T03:01:22.354Z,0
2017-01-07T03:02:35.779Z,0
2017-01-07T03:03:49.370Z,0
2017-01-07T03:05:02.942Z,0
2017-01-07T03:06:16.372Z,0
2017-01-07T03:07:29.805Z,0
2017-01-07T03:08:43.233Z,0
2017-01-07T03:09:56.735Z,0
2017-01-07T03:11:10.198Z,0
2017-01-07T03:12:23.621Z,0
2017-01-07T03:13:37.049Z,0
2017-01-07T03:14:50.541Z,0
2017-01-07T03:16:03.931Z,0
2017-01-07T03:17:17.439Z,0
2017-01-07T03:18:30.894Z,0
2017-01-07T03:19:44.681Z,0
2017-01-07T03:20:58.075Z,0
2017-01-07T03:22:11.499Z,0
2017-01-07T03:23:24.890Z,0
2017-01-07T03:24:38.305Z,0
2017-01-07T03:25:51.807Z,0
2017-01-07T03:27:05.220Z,0
2017-01-07T03:28:18.650Z,0
2017-01-07T03:29:32.075Z,0
2017-01-07T03:30:45.558Z,0
2017-01-07T03:31:58.938Z,0
2017-01-07T03:33:12.356Z,0
2017-01-07T03:34:25.800Z,0
2017-01-07T03:35:39.329Z,0
2017-01-07T03:36:52.756Z,0
2017-01-07T03:38:07.048Z,0
2017-01-07T03:39:20.932Z,0
2017-01-07T03:40:34.627Z,0
2017-01-07T03:41:48.208Z,0
2017-01-07T03:43:01.667Z,0
2017-01-07T03:44:15.131Z,0
2017-01-07T03:45:28.533Z,0
2017-01-07T03:46:42.597Z,0
2017-01-07T03:47:56.013Z,0
2017-01-07T03:49:09.678Z,0
2017-01-07T03:50:23.560Z,0
2017-01-07T03:51:37.106Z,0
2017-01-07T03:52:50.528Z,0
2017-01-07T03:54:04.373Z,0
2017-01-07T03:55:17.793Z,0
2017-01-07T03:56:31.437Z,0
2017-01-07T03:57:44.960Z,0
2017-01-07T03:58:58.388Z,0
2017-01-07T04:00:11.855Z,0
2017-01-07T04:01:25.264Z,0
2017-01-07T04:02:39.088Z,0
2017-01-07T04:03:52.554Z,0
2017-01-07T04:05:05.995Z,0
2017-01-07T04:06:19.440Z,0
2017-01-07T04:07:32.925Z,0
2017-01-07T04:08:46.404Z,0
2017-01-07T04:09:59.906Z,0
2017-01-07T04:11:15.715Z,0
2017-01-07T04:12:29.192Z,0
2017-01-07T04:13:42.641Z,0
2017-01-07T04:14:56.124Z,0
2017-01-07T04:16:09.573Z,0
2017-01-07T04:17:23.065Z,0
2017-01-07T04:18:36.618Z,0
2017-01-07T04:19:50.032Z,0
2017-01-07T04:21:03.458Z,0
2017-01-07T04:22:16.876Z,0
2017-01-07T04:23:30.547Z,0
2017-01-07T04:24:43.973Z,0
2017-01-07T04:25:57.548Z,0
2017-01-07T04:27:10.997Z,0
2017-01-07T04:28:24.495Z,0
2017-01-07T04:29:37.988Z,0
2017-01-07T04:30:51.455Z,0
2017-01-07T04:32:05.176Z,0
2017-01-07T04:33:18.753Z,0
2017-01-07T04:34:32.267Z,0
2017-01-07T04:35:45.704Z,0
2017-01-07T04:36:59.112Z,0
2017-01-07T04:38:12.556Z,0
2017-01-07T04:39:26.261Z,0
2017-01-07T04:40:40.095Z,0
2017-01-07T04:41:53.548Z,0
2017-01-07T04:43:07.014Z,0
2017-01-07T04:44:20.455Z,0
2017-01-07T04:45:34.374Z,0
2017-01-07T04:46:47.822Z,0
2017-01-07T04:48:01.240Z,0
2017-01-07T04:49:14.667Z,0
2017-01-07T04:50:28.185Z,0
2017-01-07T04:51:41.634Z,0
2017-01-07T04:52:55.177Z,0
2017-01-07T04:54:09.134Z,0
2017-01-07T04:55:23.181Z,0
2017-01-07T04:56:37.275Z,0
2017-01-07T04:57:51.786Z,0
2017-01-07T04:59:07.156Z,0
2017-01-07T05:00:21.883Z,0
2017-01-07T05:01:35.295Z,0
2017-01-07T05:02:50.666Z,0
2017-01-07T05:04:07.767Z,0
2017-01-07T05:05:22.920Z,0
2017-01-07T05:06:38.014Z,0
2017-01-07T05:07:52.208Z,0
2017-01-07T05:09:07.044Z,0
2017-01-07T05:10:20.511Z,0
2017-01-07T05:11:33.930Z,0
2017-01-07T05:12:47.833Z,0
2017-01-07T05:14:01.319Z,0
2017-01-07T05:15:14.745Z,0
2017-01-07T05:16:28.403Z,0
2017-01-07T05:17:41.804Z,0
2017-01-07T05:18:55.192Z,0
2017-01-07T05:20:08.607Z,0
2017-01-07T05:21:22.546Z,0
2017-01-07T05:22:36.294Z,0
2017-01-07T05:23:49.679Z,0
2017-01-07T05:25:03.113Z,0
2017-01-07T05:26:16.519Z,0
2017-01-07T05:27:32.147Z,0
2017-01-07T05:28:45.595Z,0
2017-01-07T05:29:59.019Z,0
2017-01-07T05:31:12.450Z,0
2017-01-07T05:32:25.976Z,0
2017-01-07T05:33:39.406Z,0
2017-01-07T05:34:52.834Z,0
2017-01-07T05:36:06.262Z,0
2017-01-07T05:37:19.792Z,0
2017-01-07T05:38:33.417Z,0
2017-01-07T05:39:46.860Z,0
2017-01-07T05:41:00.277Z,0
2017-01-07T05:42:14.119Z,0
2017-01-07T05:43:27.579Z,0
2017-01-07T05:44:41.174Z,0
2017-01-07T05:45:54.628Z,0
2017-01-07T05:47:08.088Z,0
2017-01-07T05:48:21.626Z,0
2017-01-07T05:49:35.061Z,0
2017-01-07T05:50:48.493Z,0
2017-01-07T05:52:02.037Z,0
2017-01-07T05:53:15.703Z,0
2017-01-07T05:54:29.150Z,0
2017-01-07T05:55:42.620Z,0
2017-01-07T05:56:56.725Z,0
2017-01-07T05:58:10.155Z,0
2017-01-07T05:59:23.779Z,0
2017-01-07T06:00:37.217Z,0
2017-01-07T06:01:51.064Z,0
2017-01-07T06:03:04.480Z,0
2017-01-07T06:04:19.203Z,0
2017-01-07T06:05:33.128Z,0
2017-01-07T06:06:46.731Z,0
2017-01-07T06:08:00.199Z,0
2017-01-07T06:09:13.725Z,0
2017-01-07T06:10:27.166Z,0
2017-01-07T06:11:40.615Z,0
2017-01-07T06:12:54.045Z,0
2017-01-07T06:14:07.457Z,0
2017-01-07T06:15:22.194Z,0
2017-01-07T06:16:35.597Z,0
2017-01-07T06:17:49.034Z,0
2017-01-07T06:19:02.488Z,0
2017-01-07T06:20:16.101Z,0
2017-01-07T06:21:29.522Z,0
2017-01-07T06:22:42.935Z,0
2017-01-07T06:23:56.326Z,0
2017-01-07T06:25:10.111Z,0
2017-01-07T06:26:23.661Z,0
2017-01-07T06:27:37.353Z,0
2017-01-07T06:28:50.755Z,0
2017-01-07T06:30:04.160Z,0
2017-01-07T06:31:17.665Z,0
2017-01-07T06:32:31.118Z,0
2017-01-07T06:33:44.537Z,0
2017-01-07T06:34:57.955Z,0
2017-01-07T06:36:11.639Z,0
2017-01-07T06:37:25.054Z,0
2017-01-07T06:38:38.467Z,0
2017-01-07T06:39:51.870Z,0
2017-01-07T06:41:05.351Z,0
2017-01-07T06:42:38.025Z,0
2017-01-07T06:43:53.633Z,0
2017-01-07T06:45:07.224Z,0
2017-01-07T06:46:20.853Z,0
2017-01-07T06:47:34.282Z,0
2017-01-07T06:48:47.758Z,0
2017-01-07T06:50:01.196Z,0
2017-01-07T06:51:14.721Z,0
2017-01-07T06:52:29.405Z,0
2017-01-07T06:53:43.332Z,0
2017-01-07T06:54:58.112Z,0
2017-01-07T06:56:11.625Z,0
2017-01-07T06:57:25.101Z,0
2017-01-07T06:58:38.534Z,0
2017-01-07T06:59:52.052Z,0
2017-01-07T07:01:05.641Z,0
2017-01-07T07:02:19.277Z,0
2017-01-07T07:03:32.694Z,0
2017-01-07T07:04:46.232Z,0
2017-01-07T07:05:59.724Z,0
2017-01-07T07:07:13.292Z,0
2017-01-07T07:08:26.740Z,0
2017-01-07T07:09:40.282Z,0
2017-01-07T07:10:53.810Z,0
2017-01-07T07:12:07.356Z,0
2017-01-07T07:13:22.049Z,0
2017-01-07T07:14:35.646Z,0
2017-01-07T07:15:49.159Z,0
2017-01-07T07:17:02.700Z,0
2017-01-07T07:18:16.226Z,0
2017-01-07T07:19:29.814Z,0
2017-01-07T07:20:43.325Z,0
2017-01-07T07:21:56.787Z,0
2017-01-07T07:23:10.336Z,0
2017-01-07T07:24:23.748Z,0
2017-01-07T07:25:37.306Z,0
2017-01-07T07:26:51.203Z,5
2017-01-07T07:28:04.726Z,5
2017-01-07T07:29:19.470Z,5
2017-01-07T07:30:32.924Z,5
2017-01-07T07:31:46.848Z,5
2017-01-07T07:33:00.824Z,5
2017-01-07T07:34:14.652Z,5
2017-01-07T07:35:28.580Z,10
2017-01-07T07:36:42.051Z,10
2017-01-07T07:37:55.591Z,10
2017-01-07T07:39:09.181Z,10
2017-01-07T07:40:22.621Z,10
2017-01-07T07:41:36.186Z,10
2017-01-07T07:42:49.650Z,10
2017-01-07T07:44:03.064Z,15
2017-01-07T07:45:16.900Z,15
2017-01-07T07:46:31.189Z,15
2017-01-07T07:47:44.735Z,15
2017-01-07T07:48:58.687Z,15
2017-01-07T07:50:12.594Z,15
2017-01-07T07:51:26.228Z,20
2017-01-07T07:52:39.664Z,20
2017-01-07T07:53:53.192Z,20
2017-01-07T07:55:08.046Z,20
2017-01-07T07:56:21.592Z,25
2017-01-07T07:57:35.257Z,25
2017-01-07T07:58:48.876Z,25
2017-01-07T08:00:04.963Z,30
2017-01-07T08:01:18.567Z,30
2017-01-07T08:02:32.087Z,30
2017-01-07T08:03:45.498Z,35
2017-01-07T08:04:59.130Z,40
2017-01-07T08:06:12.765Z,40
2017-01-07T08:07:26.227Z,40
2017-01-07T08:08:39.677Z,40
2017-01-07T08:09:53.484Z,40
2017-01-07T08:11:08.308Z,40
2017-01-07T08:12:21.816Z,40
2017-01-07T08:13:35.372Z,40
2017-01-07T08:14:48.918Z,40
2017-01-07T08:16:02.452Z,40
2017-01-07T08:17:16.083Z,40
2017-01-07T08:18:29.539Z,40
2017-01-07T08:19:43.079Z,45
2017-01-07T08:20:56.543Z,45
2017-01-07T08:22:10.066Z,45
2017-01-07T08:23:23.617Z,50
2017-01-07T08:24:37.119Z,50
2017-01-07T08:25:50.590Z,45
2017-01-07T08:27:04.284Z,45
2017-01-07T08:28:17.861Z,45
2017-01-07T08:29:31.592Z,45
2017-01-07T08:30:45.047Z,45
2017-01-07T08:31:58.657Z,45
2017-01-07T08:33:12.350Z,45
2017-01-07T08:34:25.910Z,40
2017-01-07T08:35:39.969Z,40
2017-01-07T08:36:53.620Z,40
2017-01-07T08:38:08.134Z,45
2017-01-07T08:39:22.448Z,45
2017-01-07T08:40:35.952Z,50
2017-01-07T08:41:49.899Z,50
2017-01-07T08:43:03.831Z,50
2017-01-07T08:44:17.379Z,50
2017-01-07T08:45:30.911Z,50
2017-01-07T08:46:44.847Z,50
2017-01-07T08:47:58.461Z,50
2017-01-07T08:49:11.942Z,50
2017-01-07T08:50:25.435Z,50
2017-01-07T08:51:38.872Z,50
2017-01-07T08:52:52.334Z,55
2017-01-07T08:54:05.817Z,55
2017-01-07T08:55:19.355Z,60
2017-01-07T08:56:32.805Z,60
2017-01-07T09:01:35.172Z,60
2017-01-07T09:02:48.603Z,60
2017-01-07T09:04:02.023Z,60
2017-01-07T09:05:15.454Z,60
2017-01-07T09:06:29.500Z,60
2017-01-07T09:07:43.074Z,60
2017-01-07T09:08:56.532Z,60
2017-01-07T09:10:09.938Z,60
2017-01-07T09:11:23.419Z,60
2017-01-07T09:12:36.933Z,65
2017-01-07T09:13:50.347Z,65
2017-01-07T09:15:03.815Z,65
2017-01-07T09:16:17.259Z,65
2017-01-07T09:17:30.810Z,65
2017-01-07T09:18:46.410Z,65
2017-01-07T09:19:59.865Z,65
2017-01-07T09:21:13.380Z,70
2017-01-07T09:22:26.913Z,70
2017-01-07T09:23:40.413Z,65
2017-01-07T09:24:53.835Z,65
2017-01-07T09:26:07.282Z,65
2017-01-07T09:27:20.974Z,65
2017-01-07T09:28:34.360Z,65
2017-01-07T09:29:47.794Z,65
2017-01-07T09:31:01.232Z,65
2017-01-07T09:32:14.642Z,70
2017-01-07T09:33:28.268Z,70
2017-01-07T09:34:41.667Z,70
2017-01-07T09:35:55.112Z,65
2017-01-07T09:37:08.554Z,65
2017-01-07T09:38:22.232Z,60
2017-01-07T09:39:36.119Z,60
2017-01-07T09:40:49.599Z,60
2017-01-07T09:42:03.052Z,60
2017-01-07T09:43:16.502Z,60
2017-01-07T09:44:30.431Z,60
2017-01-07T09:45:43.889Z,60
2017-01-07T09:46:57.400Z,60
2017-01-07T09:48:10.907Z,60
2017-01-07T09:49:24.611Z,65
2017-01-07T09:50:38.051Z,65
2017-01-07T09:51:51.533Z,70
2017-01-07T09:53:05.211Z,75
2017-01-07T09:54:19.066Z,75
2017-01-07T09:55:32.500Z,75
2017-01-07T09:56:45.928Z,75
2017-01-07T09:57:59.343Z,75
2017-01-07T09:59:12.784Z,70
2017-01-07T10:00:26.468Z,70
2017-01-07T10:01:39.897Z,70
2017-01-07T10:02:54.553Z,70
2017-01-07T10:04:08.091Z,75
2017-01-07T10:05:21.655Z,75
2017-01-07T10:06:35.347Z,80
2017-01-07T10:07:49.802Z,80
2017-01-07T10:09:04.138Z,80
2017-01-07T10:10:17.732Z,80
2017-01-07T10:11:31.333Z,80
2017-01-07T10:12:45.679Z,80
2017-01-07T10:13:59.154Z,80
2017-01-07T10:15:12.705Z,80
2017-01-07T10:16:26.219Z,80
2017-01-07T10:17:39.741Z,80
2017-01-07T10:18:53.224Z,80
2017-01-07T10:20:06.655Z,75
2017-01-07T10:21:20.213Z,75
2017-01-07T10:22:33.680Z,80
2017-01-07T10:23:47.149Z,80
2017-01-07T10:25:00.607Z,85
2017-01-07T10:26:14.166Z,85
2017-01-07T10:27:27.867Z,90
2017-01-07T10:28:42.151Z,95
2017-01-07T10:29:55.570Z,100
2017-01-07T10:31:09.053Z,100
2017-01-07T10:32:22.550Z,100
2017-01-07T10:33:37.483Z,100
2017-01-07T10:34:53.521Z,100
2017-01-07T10:36:07.006Z,95
2017-01-07T10:37:20.557Z,95
2017-01-07T10:38:34.029Z,95
2017-01-07T10:39:47.488Z,90
2017-01-07T10:41:00.961Z,90
2017-01-07T10:42:14.468Z,90
2017-01-07T10:43:27.916Z,90
2017-01-07T10:44:41.332Z,90
2017-01-07T10:45:54.830Z,90
2017-01-07T10:47:08.327Z,90
2017-01-07T10:48:22.563Z,90
2017-01-07T10:49:36.655Z,95
2017-01-07T10:50:51.112Z,95
2017-01-07T10:52:04.581Z,95
2017-01-07T10:53:18.178Z,95
2017-01-07T10:54:31.598Z,100
2017-01-07T10:55:45.019Z,100
2017-01-07T10:56:58.497Z,100
2017-01-07T10:58:12.086Z,105
2017-01-07T10:59:25.516Z,105
2017-01-07T11:00:38.945Z,105
2017-01-07T11:01:52.380Z,110
2017-01-07T11:03:05.842Z,110
2017-01-07T11:04:20.153Z,110
2017-01-07T11:05:33.626Z,115
2017-01-07T11:06:47.047Z,115
2017-01-07T11:08:00.531Z,115
2017-01-07T11:09:14.089Z,110
2017-01-07T11:10:27.653Z,105
2017-01-07T11:11:41.121Z,100
2017-01-07T11:12:54.597Z,95
2017-01-07T11:14:08.130Z,90
2017-01-07T11:15:21.587Z,85
2017-01-07T11:16:35.012Z,80
2017-01-07T11:17:49.040Z,80
2017-01-07T11:19:04.029Z,75
2017-01-07T11:20:17.530Z,70
2017-01-07T11:21:30.993Z,70
2017-01-07T11:22:44.470Z,70
2017-01-07T11:23:57.911Z,75
2017-01-07T11:25:11.525Z,75
2017-01-07T11:26:24.961Z,80
2017-01-07T11:27:38.448Z,85
2017-01-07T11:28:51.937Z,90
2017-01-07T11:30:05.464Z,90
2017-01-07T11:31:18.962Z,90
2017-01-07T11:32:32.397Z,90
2017-01-07T11:33:45.808Z,95
2017-01-07T11:34:59.482Z,95
2017-01-07T11:36:13.020Z,90
2017-01-07T11:37:26.528Z,90
2017-01-07T11:38:40.831Z,90
2017-01-07T11:39:54.813Z,90
2017-01-07T11:41:08.343Z,80
2017-01-07T11:42:21.799Z,75
2017-01-07T11:43:35.269Z,70
2017-01-07T11:44:48.731Z,70
2017-01-07T11:46:02.851Z,65
2017-01-07T11:47:16.272Z,65
2017-01-07T11:48:30.134Z,65
2017-01-07T11:49:43.579Z,70
2017-01-07T11:51:00.583Z,70
2017-01-07T11:52:14.115Z,75
2017-01-07T11:53:27.595Z,75
2017-01-07T11:54:41.377Z,75
2017-01-07T11:55:54.906Z,75
2017-01-07T11:57:08.813Z,75
2017-01-07T11:58:22.312Z,75
2017-01-07T11:59:35.828Z,75
2017-01-07T12:00:49.291Z,80
2017-01-07T12:02:04.057Z,80
2017-01-07T12:03:17.578Z,80
2017-01-07T12:04:31.062Z,80
2017-01-07T12:05:44.544Z,80
2017-01-07T12:06:58.115Z,80
2017-01-07T12:08:11.672Z,80
2017-01-07T12:09:25.110Z,85
2017-01-07T12:10:38.644Z,85
2017-01-07T12:11:52.492Z,85
2017-01-07T12:13:06.188Z,80
2017-01-07T12:14:19.920Z,80
2017-01-07T12:15:33.622Z,75
2017-01-07T12:16:47.203Z,70
2017-01-07T12:18:00.794Z,70
2017-01-07T12:19:14.419Z,65
2017-01-07T12:20:27.878Z,65
2017-01-07T12:21:41.345Z,65
2017-01-07T12:22:54.854Z,60
2017-01-07T12:24:08.660Z,60
2017-01-07T12:25:22.377Z,65
2017-01-07T12:26:35.937Z,65
2017-01-07T12:27:49.598Z,65
2017-01-07T12:29:04.459Z,65
2017-01-07T12:30:18.386Z,65
2017-01-07T12:31:31.812Z,70
2017-01-07T12:32:45.259Z,65
2017-01-07T12:33:58.869Z,65
2017-01-07T12:35:12.307Z,65
2017-01-07T12:36:25.708Z,65
2017-01-07T12:37:39.142Z,65
2017-01-07T12:38:52.586Z,65
2017-01-07T12:40:06.148Z,65
2017-01-07T12:41:19.767Z,65
2017-01-07T12:42:33.219Z,65
2017-01-07T12:43:46.691Z,65
2017-01-07T12:45:00.226Z,65
2017-01-07T12:46:13.677Z,65
2017-01-07T12:47:27.188Z,65
2017-01-07T12:48:40.850Z,70
2017-01-07T12:49:54.421Z,70
2017-01-07T12:51:07.916Z,70
2017-01-07T12:52:24.990Z,70
2017-01-07T12:53:40.121Z,65
2017-01-07T12:54:53.697Z,65
2017-01-07T12:56:07.944Z,60
2017-01-07T12:57:21.436Z,60
2017-01-07T12:58:35.297Z,55
2017-01-07T12:59:48.829Z,55
2017-01-07T13:01:02.425Z,55
2017-01-07T13:02:15.928Z,55
2017-01-07T13:03:29.426Z,55
2017-01-07T13:04:42.866Z,55
2017-01-07T13:05:56.505Z,55
2017-01-07T13:07:12.209Z,50
2017-01-07T13:08:26.131Z,50
2017-01-07T13:09:40.097Z,45
2017-01-07T13:10:53.676Z,45
2017-01-07T13:12:07.704Z,45
2017-01-07T13:13:21.321Z,50
2017-01-07T13:14:34.824Z,50
2017-01-07T13:15:48.477Z,50
2017-01-07T13:17:01.898Z,45
2017-01-07T13:18:15.337Z,45
2017-01-07T13:19:29.164Z,45
2017-01-07T13:20:42.665Z,45
2017-01-07T13:21:56.178Z,45
2017-01-07T13:23:09.635Z,40
2017-01-07T13:24:23.090Z,40
2017-01-07T13:25:36.707Z,40
2017-01-07T13:26:51.480Z,35
2017-01-07T13:28:05.056Z,35
2017-01-07T13:29:18.589Z,35
2017-01-07T13:30:32.395Z,35
2017-01-07T13:31:45.959Z,35
2017-01-07T13:33:00.727Z,35
2017-01-07T13:34:14.543Z,35
2017-01-07T13:35:28.082Z,35
2017-01-07T13:36:41.803Z,35
2017-01-07T13:37:55.715Z,35
2017-01-07T13:39:09.187Z,35
2017-01-07T13:40:23.063Z,35
2017-01-07T13:41:36.960Z,35
2017-01-07T13:42:50.541Z,35
2017-01-07T13:44:04.026Z,35
2017-01-07T13:45:17.754Z,35
2017-01-07T13:46:32.001Z,35
2017-01-07T13:47:45.475Z,35
2017-01-07T13:48:59.035Z,30
2017-01-07T13:50:12.471Z,30
2017-01-07T13:51:25.984Z,30
2017-01-07T13:52:39.734Z,35
2017-01-07T13:53:54.484Z,35
2017-01-07T13:55:07.933Z,35
2017-01-07T13:56:21.504Z,35
2017-01-07T13:57:35.029Z,35
2017-01-07T13:58:48.942Z,30
2017-01-07T14:00:02.406Z,30
2017-01-07T14:01:15.898Z,30
2017-01-07T14:02:29.382Z,25
2017-01-07T14:03:42.804Z,25
2017-01-07T14:04:57.661Z,25
2017-01-07T14:06:11.223Z,25
2017-01-07T14:07:24.698Z,25
2017-01-07T14:08:38.170Z,25
2017-01-07T14:09:51.703Z,25
2017-01-07T14:11:05.185Z,25
2017-01-07T14:12:18.959Z,25
2017-01-07T14:13:32.417Z,25
2017-01-07T14:14:46.147Z,30
2017-01-07T14:15:59.650Z,25
2017-01-07T14:17:13.117Z,25
2017-01-07T14:18:26.556Z,25
2017-01-07T14:19:40.056Z,25
2017-01-07T14:20:53.845Z,25
2017-01-07T14:22:07.509Z,25
2017-01-07T14:23:23.205Z,25
2017-01-07T14:24:36.684Z,25
2017-01-07T14:25:50.642Z,25
2017-01-07T14:27:04.282Z,25
2017-01-07T14:28:18.948Z,25
2017-01-07T14:29:32.514Z,25
2017-01-07T14:30:46.535Z,25
2017-01-07T14:32:00.033Z,20
2017-01-07T14:33:13.467Z,20
2017-01-07T14:34:27.005Z,20
2017-01-07T14:35:41.165Z,20
2017-01-07T14:36:54.629Z,20
2017-01-07T14:38:09.262Z,20
2017-01-07T14:39:22.882Z,20
2017-01-07T14:40:36.461Z,20
2017-01-07T14:41:50.058Z,15
2017-01-07T14:43:03.531Z,20
2017-01-07T14:44:17.001Z,20
2017-01-07T14:45:30.514Z,20
2017-01-07T14:46:46.156Z,20
2017-01-07T14:47:59.572Z,20
2017-01-07T14:49:13.087Z,20
2017-01-07T14:50:26.683Z,20
2017-01-07T14:51:40.362Z,15
2017-01-07T14:53:00.425Z,15
2017-01-07T14:54:14.006Z,15
2017-01-07T14:55:27.541Z,15
2017-01-07T14:56:41.267Z,15
2017-01-07T14:57:55.382Z,15
2017-01-07T14:59:09.691Z,10
2017-01-07T15:00:23.224Z,10
2017-01-07T15:01:37.192Z,10
2017-01-07T15:02:50.950Z,10
2017-01-07T15:04:04.548Z,10
2017-01-07T15:05:17.962Z,10
2017-01-07T15:06:31.441Z,10
2017-01-07T15:07:45.742Z,10
2017-01-07T15:08:59.749Z,10
2017-01-07T15:10:13.508Z,10
2017-01-07T15:11:27.015Z,10
2017-01-07T15:12:40.594Z,10
2017-01-07T15:13:54.103Z,5
2017-01-07T15:15:07.636Z,5
2017-01-07T15:16:21.455Z,5
2017-01-07T15:17:34.987Z,5
2017-01-07T15:18:48.609Z,5
2017-01-07T15:20:04.010Z,5
2017-01-07T15:21:17.721Z,5
2017-01-07T15:22:31.881Z,5
2017-01-07T15:23:45.444Z,0
2017-01-07T15:24:58.896Z,0
2017-01-07T15:26:12.423Z,0
2017-01-07T15:27:25.914Z,0
2017-01-07T15:28:39.441Z,0
2017-01-07T15:29:53.098Z,0
2017-01-07T15:31:06.785Z,0
2017-01-07T15:32:20.216Z,0
2017-01-07T15:33:33.749Z,0
2017-01-07T15:34:47.371Z,0
2017-01-07T15:36:00.896Z,0
2017-01-07T15:37:14.355Z,0
2017-01-07T15:38:28.608Z,0
2017-01-07T15:39:44.496Z,0
2017-01-07T15:40:58.429Z,0
2017-01-07T15:42:11.897Z,0
2017-01-07T15:43:25.861Z,0
2017-01-07T15:44:39.886Z,0
2017-01-07T15:45:53.457Z,0
2017-01-07T15:47:07.152Z,0
2017-01-07T15:48:20.709Z,0
2017-01-07T15:49:34.316Z,0
2017-01-07T15:50:48.104Z,0
2017-01-07T15:52:01.632Z,0
2017-01-07T15:53:15.233Z,0
2017-01-07T15:54:28.822Z,0
2017-01-07T15:55:42.510Z,0
2017-01-07T15:56:55.956Z,0
2017-01-07T15:58:09.832Z,0
2017-01-07T15:59:23.337Z,0
2017-01-07T16:00:36.798Z,0
2017-01-07T16:01:50.349Z,0
2017-01-07T16:03:03.809Z,0
2017-01-07T16:04:17.622Z,0
2017-01-07T16:05:31.210Z,0
2017-01-07T16:06:44.807Z,0
2017-01-07T16:07:59.116Z,0
2017-01-07T16:09:12.782Z,0
2017-01-07T16:10:27.585Z,0
2017-01-07T16:11:41.225Z,0
2017-01-07T16:12:54.850Z,0
2017-01-07T16:14:08.438Z,0
2017-01-07T16:15:22.413Z,0
2017-01-07T16:16:36.002Z,0
2017-01-07T16:17:49.566Z,0
2017-01-07T16:19:05.047Z,0
2017-01-07T16:20:20.125Z,0
2017-01-07T16:21:34.499Z,0
2017-01-07T16:22:48.365Z,0
2017-01-07T16:24:01.977Z,0
2017-01-07T16:25:15.721Z,0
2017-01-07T16:26:29.235Z,0
2017-01-07T16:27:42.996Z,0
2017-01-07T16:28:56.827Z,0
2017-01-07T16:30:10.277Z,0
2017-01-07T16:31:24.095Z,0
2017-01-07T16:32:40.635Z,0
2017-01-07T16:33:54.687Z,0
2017-01-07T16:35:08.173Z,0
2017-01-07T16:36:21.717Z,0
2017-01-07T16:37:36.911Z,0
2017-01-07T16:38:51.164Z,0
2017-01-07T16:40:05.037Z,0
2017-01-07T16:41:18.544Z,0
2017-01-07T16:42:32.044Z,0
2017-01-07T16:43:45.530Z,0
2017-01-07T16:44:59.146Z,0
2017-01-07T16:46:12.724Z,0
2017-01-07T16:47:26.353Z,0
2017-01-07T16:48:40.341Z,0
2017-01-07T16:49:53.880Z,0
2017-01-07T16:51:07.501Z,0
2017-01-07T16:52:23.867Z,0
2017-01-07T16:53:38.434Z,0
2017-01-07T16:54:51.913Z,0
2017-01-07T16:56:07.560Z,0
2017-01-07T16:57:21.105Z,0
2017-01-07T16:58:35.209Z,0
2017-01-07T16:59:48.652Z,0
2017-01-07T17:01:02.088Z,0
2017-01-07T17:02:15.488Z,0
2017-01-07T17:03:29.504Z,0
2017-01-07T17:04:44.422Z,0
2017-01-07T17:05:57.944Z,0
2017-01-07T17:07:11.812Z,0
2017-01-07T17:08:25.289Z,0
2017-01-07T17:09:40.151Z,0
2017-01-07T17:10:53.588Z,0
2017-01-07T17:12:07.099Z,0
2017-01-07T17:13:20.565Z,0
2017-01-07T17:14:35.580Z,0
2017-01-07T17:15:49.254Z,0
2017-01-07T17:17:03.049Z,0
2017-01-07T17:18:17.391Z,0
2017-01-07T17:19:31.583Z,0
2017-01-07T17:20:45.942Z,0
2017-01-07T17:22:00.055Z,0
2017-01-07T17:23:14.154Z,0
2017-01-07T17:24:27.701Z,0
2017-01-07T17:25:42.445Z,0
2017-01-07T17:26:56.372Z,0
2017-01-07T17:28:09.914Z,0
2017-01-07T17:29:24.130Z,0
2017-01-07T17:30:37.884Z,0
2017-01-07T17:31:51.620Z,0
2017-01-07T17:33:07.226Z,0
2017-01-07T17:34:26.171Z,0
2017-01-07T17:35:42.929Z,0
2017-01-07T17:36:56.503Z,0
2017-01-07T17:38:10.035Z,0
2017-01-07T17:39:23.631Z,0
2017-01-07T17:40:37.997Z,0
2017-01-07T17:41:51.900Z,0
2017-01-07T17:43:05.410Z,0
2017-01-07T17:44:18.924Z,0
2017-01-07T17:45:32.809Z,0
2017-01-07T17:46:46.780Z,0
2017-01-07T17:48:00.616Z,0
2017-01-07T17:49:14.506Z,0
2017-01-07T17:50:28.101Z,0
2017-01-07T17:51:42.126Z,0
2017-01-07T17:52:55.808Z,0
2017-01-07T17:54:10.014Z,0
2017-01-07T17:55:23.769Z,0
2017-01-07T17:56:38.491Z,0